sensor_id;sensor_type;location;lat;lon;timestamp;P1;durP1;ratioP1;P2;durP2;ratioP2
5349;SDS011;2697;42.144;24.794;2023-08-17T00:01:48;8.90;;;3.20;;
5349;SDS011;2697;42.144;24.794;2023-08-17T00:04:13;13.63;;;3.97;;
5349;SDS011;2697;42.144;24.794;2023-08-17T00:06:38;4.53;;;3.27;;
5349;SDS011;2697;42.144;24.794;2023-08-17T00:09:04;15.70;;;4.00;;
5349;SDS011;2697;42.144;24.794;2023-08-17T00:11:31;8.53;;;3.67;;
5349;SDS011;2697;42.144;24.794;2023-08-17T00:13:57;5.90;;;3.50;;
5349;SDS011;2697;42.144;24.794;2023-08-17T00:16:22;9.90;;;3.80;;
5349;SDS011;2697;42.144;24.794;2023-08-17T00:18:48;10.60;;;4.30;;
5349;SDS011;2697;42.144;24.794;2023-08-17T00:21:14;9.00;;;3.70;;
5349;SDS011;2697;42.144;24.794;2023-08-17T00:23:39;11.60;;;3.97;;
5349;SDS011;2697;42.144;24.794;2023-08-17T00:26:05;6.20;;;4.53;;
5349;SDS011;2697;42.144;24.794;2023-08-17T00:28:30;27.77;;;3.53;;
5349;SDS011;2697;42.144;24.794;2023-08-17T00:30:56;14.80;;;5.30;;
5349;SDS011;2697;42.144;24.794;2023-08-17T00:33:21;12.30;;;4.73;;
5349;SDS011;2697;42.144;24.794;2023-08-17T00:35:46;13.53;;;5.50;;
5349;SDS011;2697;42.144;24.794;2023-08-17T00:38:12;21.20;;;5.47;;
5349;SDS011;2697;42.144;24.794;2023-08-17T00:40:37;13.27;;;4.27;;
5349;SDS011;2697;42.144;24.794;2023-08-17T00:43:03;13.03;;;4.53;;
5349;SDS011;2697;42.144;24.794;2023-08-17T00:45:30;8.83;;;4.40;;
5349;SDS011;2697;42.144;24.794;2023-08-17T00:47:56;18.10;;;5.33;;
5349;SDS011;2697;42.144;24.794;2023-08-17T00:50:23;7.87;;;5.03;;
5349;SDS011;2697;42.144;24.794;2023-08-17T00:52:51;16.40;;;4.70;;
5349;SDS011;2697;42.144;24.794;2023-08-17T00:55:17;15.53;;;4.80;;
5349;SDS011;2697;42.144;24.794;2023-08-17T00:57:43;9.50;;;5.30;;
5349;SDS011;2697;42.144;24.794;2023-08-17T01:00:10;10.93;;;4.50;;
5349;SDS011;2697;42.144;24.794;2023-08-17T01:02:36;9.60;;;4.37;;
5349;SDS011;2697;42.144;24.794;2023-08-17T01:05:03;8.87;;;5.03;;
5349;SDS011;2697;42.144;24.794;2023-08-17T01:07:31;8.57;;;4.50;;
5349;SDS011;2697;42.144;24.794;2023-08-17T01:09:56;12.57;;;5.27;;
5349;SDS011;2697;42.144;24.794;2023-08-17T01:12:33;11.93;;;6.40;;
5349;SDS011;2697;42.144;24.794;2023-08-17T01:17:40;11.93;;;5.40;;
5349;SDS011;2697;42.144;24.794;2023-08-17T01:20:16;12.87;;;5.40;;
5349;SDS011;2697;42.144;24.794;2023-08-17T01:22:42;23.47;;;5.83;;
5349;SDS011;2697;42.144;24.794;2023-08-17T01:25:10;12.67;;;4.67;;
5349;SDS011;2697;42.144;24.794;2023-08-17T01:27:40;11.10;;;7.23;;
5349;SDS011;2697;42.144;24.794;2023-08-17T01:30:07;13.63;;;6.90;;
5349;SDS011;2697;42.144;24.794;2023-08-17T01:32:53;18.93;;;7.67;;
5349;SDS011;2697;42.144;24.794;2023-08-17T01:37:58;17.10;;;8.73;;
5349;SDS011;2697;42.144;24.794;2023-08-17T01:40:26;16.80;;;6.63;;
5349;SDS011;2697;42.144;24.794;2023-08-17T01:42:54;12.20;;;6.10;;
5349;SDS011;2697;42.144;24.794;2023-08-17T01:45:20;9.20;;;5.63;;
5349;SDS011;2697;42.144;24.794;2023-08-17T01:47:46;15.67;;;6.00;;
5349;SDS011;2697;42.144;24.794;2023-08-17T01:50:11;16.60;;;6.10;;
5349;SDS011;2697;42.144;24.794;2023-08-17T01:52:36;23.43;;;7.80;;
5349;SDS011;2697;42.144;24.794;2023-08-17T01:55:02;10.70;;;6.30;;
5349;SDS011;2697;42.144;24.794;2023-08-17T01:57:27;12.10;;;6.73;;
5349;SDS011;2697;42.144;24.794;2023-08-17T01:59:53;26.73;;;7.47;;
5349;SDS011;2697;42.144;24.794;2023-08-17T02:02:18;11.20;;;6.50;;
5349;SDS011;2697;42.144;24.794;2023-08-17T02:04:44;12.67;;;6.30;;
5349;SDS011;2697;42.144;24.794;2023-08-17T02:07:09;15.93;;;6.50;;
5349;SDS011;2697;42.144;24.794;2023-08-17T02:09:34;14.70;;;7.43;;
5349;SDS011;2697;42.144;24.794;2023-08-17T02:12:00;15.07;;;5.93;;
5349;SDS011;2697;42.144;24.794;2023-08-17T02:14:25;17.67;;;5.90;;
5349;SDS011;2697;42.144;24.794;2023-08-17T02:16:50;19.70;;;7.20;;
5349;SDS011;2697;42.144;24.794;2023-08-17T02:19:17;26.50;;;6.77;;
5349;SDS011;2697;42.144;24.794;2023-08-17T02:21:42;17.50;;;7.13;;
5349;SDS011;2697;42.144;24.794;2023-08-17T02:24:08;23.67;;;9.07;;
5349;SDS011;2697;42.144;24.794;2023-08-17T02:26:33;30.57;;;7.57;;
5349;SDS011;2697;42.144;24.794;2023-08-17T02:28:58;10.80;;;5.90;;
5349;SDS011;2697;42.144;24.794;2023-08-17T02:31:24;14.50;;;6.53;;
5349;SDS011;2697;42.144;24.794;2023-08-17T02:33:49;18.13;;;6.97;;
5349;SDS011;2697;42.144;24.794;2023-08-17T02:36:14;20.63;;;7.43;;
5349;SDS011;2697;42.144;24.794;2023-08-17T02:38:40;17.00;;;6.50;;
5349;SDS011;2697;42.144;24.794;2023-08-17T02:41:05;14.70;;;5.83;;
5349;SDS011;2697;42.144;24.794;2023-08-17T02:43:31;25.23;;;5.90;;
5349;SDS011;2697;42.144;24.794;2023-08-17T02:45:56;13.30;;;7.00;;
5349;SDS011;2697;42.144;24.794;2023-08-17T02:48:21;12.07;;;5.63;;
5349;SDS011;2697;42.144;24.794;2023-08-17T02:50:47;23.23;;;6.90;;
5349;SDS011;2697;42.144;24.794;2023-08-17T02:53:12;23.20;;;5.20;;
5349;SDS011;2697;42.144;24.794;2023-08-17T02:55:38;19.23;;;5.70;;
5349;SDS011;2697;42.144;24.794;2023-08-17T02:58:03;18.93;;;6.03;;
5349;SDS011;2697;42.144;24.794;2023-08-17T03:00:28;12.40;;;5.33;;
5349;SDS011;2697;42.144;24.794;2023-08-17T03:02:54;9.47;;;6.80;;
5349;SDS011;2697;42.144;24.794;2023-08-17T03:05:19;11.93;;;5.97;;
5349;SDS011;2697;42.144;24.794;2023-08-17T03:07:44;11.83;;;5.23;;
5349;SDS011;2697;42.144;24.794;2023-08-17T03:10:10;20.53;;;6.50;;
5349;SDS011;2697;42.144;24.794;2023-08-17T03:12:35;9.63;;;5.70;;
5349;SDS011;2697;42.144;24.794;2023-08-17T03:15:03;14.30;;;5.00;;
5349;SDS011;2697;42.144;24.794;2023-08-17T03:17:30;19.30;;;5.77;;
5349;SDS011;2697;42.144;24.794;2023-08-17T03:19:55;30.77;;;6.53;;
5349;SDS011;2697;42.144;24.794;2023-08-17T03:22:24;13.13;;;5.13;;
5349;SDS011;2697;42.144;24.794;2023-08-17T03:24:49;17.93;;;5.70;;
5349;SDS011;2697;42.144;24.794;2023-08-17T03:27:15;12.93;;;6.20;;
5349;SDS011;2697;42.144;24.794;2023-08-17T03:29:40;10.20;;;5.50;;
5349;SDS011;2697;42.144;24.794;2023-08-17T03:32:05;19.13;;;7.10;;
5349;SDS011;2697;42.144;24.794;2023-08-17T03:34:31;12.83;;;5.43;;
5349;SDS011;2697;42.144;24.794;2023-08-17T03:36:56;16.97;;;6.37;;
5349;SDS011;2697;42.144;24.794;2023-08-17T03:39:21;23.23;;;6.87;;
5349;SDS011;2697;42.144;24.794;2023-08-17T03:41:47;11.87;;;7.17;;
5349;SDS011;2697;42.144;24.794;2023-08-17T03:44:12;29.63;;;8.10;;
5349;SDS011;2697;42.144;24.794;2023-08-17T03:46:40;30.80;;;7.10;;
5349;SDS011;2697;42.144;24.794;2023-08-17T03:49:05;22.43;;;8.07;;
5349;SDS011;2697;42.144;24.794;2023-08-17T03:51:31;22.63;;;8.30;;
5349;SDS011;2697;42.144;24.794;2023-08-17T03:53:56;24.70;;;7.00;;
5349;SDS011;2697;42.144;24.794;2023-08-17T03:56:21;36.97;;;9.80;;
5349;SDS011;2697;42.144;24.794;2023-08-17T03:58:47;31.00;;;9.90;;
5349;SDS011;2697;42.144;24.794;2023-08-17T04:01:12;17.73;;;7.37;;
5349;SDS011;2697;42.144;24.794;2023-08-17T04:03:38;27.97;;;6.60;;
5349;SDS011;2697;42.144;24.794;2023-08-17T04:06:05;15.83;;;7.40;;
5349;SDS011;2697;42.144;24.794;2023-08-17T04:08:31;22.00;;;5.67;;
5349;SDS011;2697;42.144;24.794;2023-08-17T04:10:56;13.60;;;6.80;;
5349;SDS011;2697;42.144;24.794;2023-08-17T04:13:22;21.20;;;6.20;;
5349;SDS011;2697;42.144;24.794;2023-08-17T04:15:47;14.93;;;7.60;;
5349;SDS011;2697;42.144;24.794;2023-08-17T04:18:13;24.77;;;8.03;;
5349;SDS011;2697;42.144;24.794;2023-08-17T04:20:38;39.47;;;6.90;;
5349;SDS011;2697;42.144;24.794;2023-08-17T04:23:03;21.80;;;6.07;;
5349;SDS011;2697;42.144;24.794;2023-08-17T04:25:29;25.53;;;7.67;;
5349;SDS011;2697;42.144;24.794;2023-08-17T04:27:54;19.93;;;6.27;;
5349;SDS011;2697;42.144;24.794;2023-08-17T04:30:20;19.67;;;6.00;;
5349;SDS011;2697;42.144;24.794;2023-08-17T04:32:45;30.47;;;6.63;;
5349;SDS011;2697;42.144;24.794;2023-08-17T04:35:17;15.90;;;6.27;;
5349;SDS011;2697;42.144;24.794;2023-08-17T04:37:42;7.60;;;4.73;;
5349;SDS011;2697;42.144;24.794;2023-08-17T04:40:08;20.53;;;5.83;;
5349;SDS011;2697;42.144;24.794;2023-08-17T04:42:35;15.50;;;5.30;;
5349;SDS011;2697;42.144;24.794;2023-08-17T04:45:00;20.10;;;5.90;;
5349;SDS011;2697;42.144;24.794;2023-08-17T04:47:26;12.77;;;5.60;;
5349;SDS011;2697;42.144;24.794;2023-08-17T04:49:51;11.03;;;5.00;;
5349;SDS011;2697;42.144;24.794;2023-08-17T04:52:16;14.83;;;5.50;;
5349;SDS011;2697;42.144;24.794;2023-08-17T04:54:42;13.57;;;5.33;;
5349;SDS011;2697;42.144;24.794;2023-08-17T04:57:07;22.40;;;5.20;;
5349;SDS011;2697;42.144;24.794;2023-08-17T04:59:32;18.77;;;4.60;;
5349;SDS011;2697;42.144;24.794;2023-08-17T05:01:58;15.55;;;4.55;;
5349;SDS011;2697;42.144;24.794;2023-08-17T05:04:23;24.75;;;6.45;;
5349;SDS011;2697;42.144;24.794;2023-08-17T05:06:49;15.88;;;4.22;;
5349;SDS011;2697;42.144;24.794;2023-08-17T05:09:14;20.00;;;4.07;;
5349;SDS011;2697;42.144;24.794;2023-08-17T05:11:39;7.03;;;4.05;;
5349;SDS011;2697;42.144;24.794;2023-08-17T05:14:05;7.10;;;4.47;;
5349;SDS011;2697;42.144;24.794;2023-08-17T05:16:30;8.85;;;4.22;;
5349;SDS011;2697;42.144;24.794;2023-08-17T05:18:55;16.40;;;5.15;;
5349;SDS011;2697;42.144;24.794;2023-08-17T05:21:22;8.88;;;3.92;;
5349;SDS011;2697;42.144;24.794;2023-08-17T05:23:48;8.35;;;4.43;;
5349;SDS011;2697;42.144;24.794;2023-08-17T05:26:13;21.42;;;4.63;;
5349;SDS011;2697;42.144;24.794;2023-08-17T05:28:40;11.60;;;3.85;;
5349;SDS011;2697;42.144;24.794;2023-08-17T05:31:06;9.38;;;3.22;;
5349;SDS011;2697;42.144;24.794;2023-08-17T05:33:32;11.63;;;3.85;;
5349;SDS011;2697;42.144;24.794;2023-08-17T05:35:57;6.60;;;3.97;;
5349;SDS011;2697;42.144;24.794;2023-08-17T05:38:23;14.52;;;4.18;;
5349;SDS011;2697;42.144;24.794;2023-08-17T05:40:54;14.02;;;3.83;;
5349;SDS011;2697;42.144;24.794;2023-08-17T05:43:20;11.60;;;3.55;;
5349;SDS011;2697;42.144;24.794;2023-08-17T05:45:45;10.73;;;3.55;;
5349;SDS011;2697;42.144;24.794;2023-08-17T05:48:11;8.70;;;3.15;;
5349;SDS011;2697;42.144;24.794;2023-08-17T05:50:36;7.63;;;3.85;;
5349;SDS011;2697;42.144;24.794;2023-08-17T05:53:01;14.93;;;3.15;;
5349;SDS011;2697;42.144;24.794;2023-08-17T05:55:27;17.50;;;3.58;;
5349;SDS011;2697;42.144;24.794;2023-08-17T05:57:52;12.15;;;3.95;;
5349;SDS011;2697;42.144;24.794;2023-08-17T06:00:17;28.60;;;3.45;;
5349;SDS011;2697;42.144;24.794;2023-08-17T06:02:43;6.88;;;3.65;;
5349;SDS011;2697;42.144;24.794;2023-08-17T06:05:08;11.48;;;3.22;;
5349;SDS011;2697;42.144;24.794;2023-08-17T06:07:34;17.15;;;3.92;;
5349;SDS011;2697;42.144;24.794;2023-08-17T06:09:59;8.80;;;3.22;;
5349;SDS011;2697;42.144;24.794;2023-08-17T06:12:25;3.47;;;2.40;;
5349;SDS011;2697;42.144;24.794;2023-08-17T06:14:50;13.57;;;3.60;;
5349;SDS011;2697;42.144;24.794;2023-08-17T06:17:16;4.20;;;2.83;;
5349;SDS011;2697;42.144;24.794;2023-08-17T06:19:41;8.02;;;3.40;;
5349;SDS011;2697;42.144;24.794;2023-08-17T06:22:07;3.55;;;2.95;;
5349;SDS011;2697;42.144;24.794;2023-08-17T06:24:32;5.85;;;2.60;;
5349;SDS011;2697;42.144;24.794;2023-08-17T06:26:58;4.43;;;3.33;;
5349;SDS011;2697;42.144;24.794;2023-08-17T06:29:23;14.35;;;4.03;;
5349;SDS011;2697;42.144;24.794;2023-08-17T06:31:49;6.65;;;3.90;;
5349;SDS011;2697;42.144;24.794;2023-08-17T06:34:14;12.73;;;4.03;;
5349;SDS011;2697;42.144;24.794;2023-08-17T06:36:40;16.17;;;2.60;;
5349;SDS011;2697;42.144;24.794;2023-08-17T06:39:05;16.83;;;3.33;;
5349;SDS011;2697;42.144;24.794;2023-08-17T06:41:31;11.68;;;3.38;;
5349;SDS011;2697;42.144;24.794;2023-08-17T06:43:56;7.50;;;3.58;;
5349;SDS011;2697;42.144;24.794;2023-08-17T06:46:21;7.78;;;3.20;;
5349;SDS011;2697;42.144;24.794;2023-08-17T06:48:47;5.63;;;2.88;;
5349;SDS011;2697;42.144;24.794;2023-08-17T06:51:12;15.43;;;3.80;;
5349;SDS011;2697;42.144;24.794;2023-08-17T06:53:37;15.52;;;3.15;;
5349;SDS011;2697;42.144;24.794;2023-08-17T06:56:03;7.45;;;3.28;;
5349;SDS011;2697;42.144;24.794;2023-08-17T06:58:28;3.03;;;2.60;;
5349;SDS011;2697;42.144;24.794;2023-08-17T07:00:54;7.07;;;3.05;;
5349;SDS011;2697;42.144;24.794;2023-08-17T07:03:19;10.40;;;3.85;;
5349;SDS011;2697;42.144;24.794;2023-08-17T07:05:45;7.60;;;2.97;;
5349;SDS011;2697;42.144;24.794;2023-08-17T07:08:11;6.60;;;3.30;;
5349;SDS011;2697;42.144;24.794;2023-08-17T07:10:36;11.25;;;3.00;;
5349;SDS011;2697;42.144;24.794;2023-08-17T07:13:01;4.72;;;2.97;;
5349;SDS011;2697;42.144;24.794;2023-08-17T07:15:28;13.65;;;3.80;;
5349;SDS011;2697;42.144;24.794;2023-08-17T07:17:55;4.15;;;2.60;;
5349;SDS011;2697;42.144;24.794;2023-08-17T07:20:20;11.23;;;3.70;;
5349;SDS011;2697;42.144;24.794;2023-08-17T07:22:45;10.55;;;3.70;;
5349;SDS011;2697;42.144;24.794;2023-08-17T07:25:11;4.47;;;3.30;;
5349;SDS011;2697;42.144;24.794;2023-08-17T07:27:36;12.57;;;4.40;;
5349;SDS011;2697;42.144;24.794;2023-08-17T07:30:02;17.38;;;3.47;;
5349;SDS011;2697;42.144;24.794;2023-08-17T07:32:28;9.60;;;4.33;;
5349;SDS011;2697;42.144;24.794;2023-08-17T07:34:53;19.43;;;3.30;;
5349;SDS011;2697;42.144;24.794;2023-08-17T07:37:19;12.73;;;3.60;;
5349;SDS011;2697;42.144;24.794;2023-08-17T07:39:44;9.23;;;3.80;;
5349;SDS011;2697;42.144;24.794;2023-08-17T07:42:10;12.93;;;3.00;;
5349;SDS011;2697;42.144;24.794;2023-08-17T07:44:35;12.53;;;3.93;;
5349;SDS011;2697;42.144;24.794;2023-08-17T07:47:01;3.37;;;2.83;;
5349;SDS011;2697;42.144;24.794;2023-08-17T07:49:27;8.70;;;3.10;;
5349;SDS011;2697;42.144;24.794;2023-08-17T07:51:53;9.43;;;3.10;;
5349;SDS011;2697;42.144;24.794;2023-08-17T07:54:19;13.30;;;3.80;;
5349;SDS011;2697;42.144;24.794;2023-08-17T07:56:44;8.33;;;3.67;;
5349;SDS011;2697;42.144;24.794;2023-08-17T07:59:09;3.00;;;2.70;;
5349;SDS011;2697;42.144;24.794;2023-08-17T08:01:35;10.40;;;4.03;;
5349;SDS011;2697;42.144;24.794;2023-08-17T08:04:00;15.27;;;3.60;;
5349;SDS011;2697;42.144;24.794;2023-08-17T08:06:26;6.97;;;3.20;;
5349;SDS011;2697;42.144;24.794;2023-08-17T08:08:51;8.82;;;3.75;;
5349;SDS011;2697;42.144;24.794;2023-08-17T08:11:16;9.30;;;2.80;;
5349;SDS011;2697;42.144;24.794;2023-08-17T08:13:42;11.43;;;3.08;;
5349;SDS011;2697;42.144;24.794;2023-08-17T08:16:07;7.97;;;2.20;;
5349;SDS011;2697;42.144;24.794;2023-08-17T08:18:33;6.63;;;2.53;;
5349;SDS011;2697;42.144;24.794;2023-08-17T08:20:58;5.00;;;2.65;;
5349;SDS011;2697;42.144;24.794;2023-08-17T08:23:23;8.13;;;3.20;;
5349;SDS011;2697;42.144;24.794;2023-08-17T08:25:49;26.02;;;3.30;;
5349;SDS011;2697;42.144;24.794;2023-08-17T08:28:14;20.52;;;3.00;;
5349;SDS011;2697;42.144;24.794;2023-08-17T08:30:39;11.25;;;3.30;;
5349;SDS011;2697;42.144;24.794;2023-08-17T08:33:05;6.60;;;2.88;;
5349;SDS011;2697;42.144;24.794;2023-08-17T08:35:30;8.95;;;2.58;;
5349;SDS011;2697;42.144;24.794;2023-08-17T08:37:55;21.80;;;3.25;;
5349;SDS011;2697;42.144;24.794;2023-08-17T08:40:29;5.97;;;3.00;;
5349;SDS011;2697;42.144;24.794;2023-08-17T08:42:56;7.47;;;3.20;;
5349;SDS011;2697;42.144;24.794;2023-08-17T08:45:22;6.25;;;2.35;;
5349;SDS011;2697;42.144;24.794;2023-08-17T08:47:48;7.20;;;2.53;;
5349;SDS011;2697;42.144;24.794;2023-08-17T08:50:18;7.53;;;2.10;;
5349;SDS011;2697;42.144;24.794;2023-08-17T08:52:53;12.55;;;3.13;;
5349;SDS011;2697;42.144;24.794;2023-08-17T08:55:21;6.13;;;2.55;;
5349;SDS011;2697;42.144;24.794;2023-08-17T08:57:49;8.63;;;2.63;;
5349;SDS011;2697;42.144;24.794;2023-08-17T09:00:16;6.85;;;3.15;;
5349;SDS011;2697;42.144;24.794;2023-08-17T09:02:42;7.57;;;2.60;;
5349;SDS011;2697;42.144;24.794;2023-08-17T09:05:09;16.90;;;3.30;;
5349;SDS011;2697;42.144;24.794;2023-08-17T09:07:36;6.22;;;2.75;;
5349;SDS011;2697;42.144;24.794;2023-08-17T09:10:02;8.10;;;2.45;;
5349;SDS011;2697;42.144;24.794;2023-08-17T09:12:29;3.40;;;1.95;;
5349;SDS011;2697;42.144;24.794;2023-08-17T09:14:55;8.07;;;2.88;;
5349;SDS011;2697;42.144;24.794;2023-08-17T09:17:31;6.43;;;2.65;;
5349;SDS011;2697;42.144;24.794;2023-08-17T09:19:59;11.90;;;3.08;;
5349;SDS011;2697;42.144;24.794;2023-08-17T09:22:45;2.97;;;2.03;;
5349;SDS011;2697;42.144;24.794;2023-08-17T09:25:10;8.80;;;2.58;;
5349;SDS011;2697;42.144;24.794;2023-08-17T09:27:36;11.55;;;2.30;;
5349;SDS011;2697;42.144;24.794;2023-08-17T09:30:03;4.35;;;2.60;;
5349;SDS011;2697;42.144;24.794;2023-08-17T09:32:33;2.67;;;2.42;;
5349;SDS011;2697;42.144;24.794;2023-08-17T09:35:05;6.70;;;1.90;;
5349;SDS011;2697;42.144;24.794;2023-08-17T09:37:34;8.38;;;2.10;;
5349;SDS011;2697;42.144;24.794;2023-08-17T09:40:00;4.70;;;2.63;;
5349;SDS011;2697;42.144;24.794;2023-08-17T09:42:25;8.13;;;2.20;;
5349;SDS011;2697;42.144;24.794;2023-08-17T09:44:52;7.72;;;2.53;;
5349;SDS011;2697;42.144;24.794;2023-08-17T09:47:18;13.00;;;2.17;;
5349;SDS011;2697;42.144;24.794;2023-08-17T09:49:49;7.57;;;2.58;;
5349;SDS011;2697;42.144;24.794;2023-08-17T09:52:16;3.90;;;2.75;;
5349;SDS011;2697;42.144;24.794;2023-08-17T09:54:43;4.63;;;1.88;;
5349;SDS011;2697;42.144;24.794;2023-08-17T09:57:10;2.67;;;1.80;;
5349;SDS011;2697;42.144;24.794;2023-08-17T09:59:35;5.28;;;2.65;;
5349;SDS011;2697;42.144;24.794;2023-08-17T10:02:01;10.52;;;2.47;;
5349;SDS011;2697;42.144;24.794;2023-08-17T10:04:28;2.92;;;2.03;;
5349;SDS011;2697;42.144;24.794;2023-08-17T10:06:58;16.10;;;3.75;;
5349;SDS011;2697;42.144;24.794;2023-08-17T10:09:27;4.90;;;2.10;;
5349;SDS011;2697;42.144;24.794;2023-08-17T10:11:57;8.32;;;2.08;;
5349;SDS011;2697;42.144;24.794;2023-08-17T10:14:33;8.48;;;2.38;;
5349;SDS011;2697;42.144;24.794;2023-08-17T10:17:01;7.57;;;2.50;;
5349;SDS011;2697;42.144;24.794;2023-08-17T10:19:51;13.73;;;2.60;;
5349;SDS011;2697;42.144;24.794;2023-08-17T10:25:20;2.75;;;2.25;;
5349;SDS011;2697;42.144;24.794;2023-08-17T10:27:48;6.32;;;2.30;;
5349;SDS011;2697;42.144;24.794;2023-08-17T10:30:14;7.78;;;1.92;;
5349;SDS011;2697;42.144;24.794;2023-08-17T10:32:39;1.83;;;1.73;;
5349;SDS011;2697;42.144;24.794;2023-08-17T10:35:10;1.92;;;1.80;;
5349;SDS011;2697;42.144;24.794;2023-08-17T10:37:35;8.20;;;2.47;;
5349;SDS011;2697;42.144;24.794;2023-08-17T10:40:02;8.15;;;2.50;;
5349;SDS011;2697;42.144;24.794;2023-08-17T10:42:32;30.63;;;3.13;;
5349;SDS011;2697;42.144;24.794;2023-08-17T10:45:00;11.68;;;2.75;;
5349;SDS011;2697;42.144;24.794;2023-08-17T10:47:31;6.40;;;1.95;;
5349;SDS011;2697;42.144;24.794;2023-08-17T10:52:30;2.28;;;2.03;;
5349;SDS011;2697;42.144;24.794;2023-08-17T10:55:01;5.47;;;2.80;;
5349;SDS011;2697;42.144;24.794;2023-08-17T10:57:31;7.32;;;2.38;;
5349;SDS011;2697;42.144;24.794;2023-08-17T11:00:07;3.67;;;2.03;;
5349;SDS011;2697;42.144;24.794;2023-08-17T11:02:39;2.78;;;2.35;;
5349;SDS011;2697;42.144;24.794;2023-08-17T11:05:04;3.53;;;2.55;;
5349;SDS011;2697;42.144;24.794;2023-08-17T11:07:41;12.25;;;2.63;;
5349;SDS011;2697;42.144;24.794;2023-08-17T11:12:44;2.47;;;2.28;;
5349;SDS011;2697;42.144;24.794;2023-08-17T11:15:10;4.85;;;2.53;;
5349;SDS011;2697;42.144;24.794;2023-08-17T11:17:35;4.28;;;1.75;;
5349;SDS011;2697;42.144;24.794;2023-08-17T11:20:01;12.32;;;2.90;;
5349;SDS011;2697;42.144;24.794;2023-08-17T11:22:27;4.43;;;2.55;;
5349;SDS011;2697;42.144;24.794;2023-08-17T11:24:53;7.80;;;1.90;;
5349;SDS011;2697;42.144;24.794;2023-08-17T11:27:18;7.20;;;2.45;;
5349;SDS011;2697;42.144;24.794;2023-08-17T11:29:45;2.33;;;1.77;;
5349;SDS011;2697;42.144;24.794;2023-08-17T11:32:10;6.60;;;2.40;;
5349;SDS011;2697;42.144;24.794;2023-08-17T11:34:37;19.90;;;2.88;;
5349;SDS011;2697;42.144;24.794;2023-08-17T11:37:03;4.85;;;2.65;;
5349;SDS011;2697;42.144;24.794;2023-08-17T11:39:32;4.32;;;2.65;;
5349;SDS011;2697;42.144;24.794;2023-08-17T11:41:58;4.50;;;2.42;;
5349;SDS011;2697;42.144;24.794;2023-08-17T11:44:24;2.78;;;1.95;;
5349;SDS011;2697;42.144;24.794;2023-08-17T11:46:50;4.18;;;1.90;;
5349;SDS011;2697;42.144;24.794;2023-08-17T11:49:16;9.88;;;2.00;;
5349;SDS011;2697;42.144;24.794;2023-08-17T11:51:42;3.42;;;1.65;;
5349;SDS011;2697;42.144;24.794;2023-08-17T11:54:07;3.47;;;2.25;;
5349;SDS011;2697;42.144;24.794;2023-08-17T11:56:33;10.48;;;2.63;;
5349;SDS011;2697;42.144;24.794;2023-08-17T11:58:59;5.15;;;2.30;;
5349;SDS011;2697;42.144;24.794;2023-08-17T12:01:33;9.57;;;2.42;;
5349;SDS011;2697;42.144;24.794;2023-08-17T12:04:00;3.33;;;1.95;;
5349;SDS011;2697;42.144;24.794;2023-08-17T12:06:25;6.05;;;2.80;;
5349;SDS011;2697;42.144;24.794;2023-08-17T12:08:51;2.28;;;1.83;;
5349;SDS011;2697;42.144;24.794;2023-08-17T12:11:16;12.50;;;1.73;;
5349;SDS011;2697;42.144;24.794;2023-08-17T12:13:48;2.35;;;1.90;;
5349;SDS011;2697;42.144;24.794;2023-08-17T12:16:17;4.82;;;2.38;;
5349;SDS011;2697;42.144;24.794;2023-08-17T12:18:44;9.43;;;2.28;;
5349;SDS011;2697;42.144;24.794;2023-08-17T12:21:10;2.85;;;2.25;;
5349;SDS011;2697;42.144;24.794;2023-08-17T12:23:36;2.20;;;1.92;;
5349;SDS011;2697;42.144;24.794;2023-08-17T12:26:01;4.47;;;1.80;;
5349;SDS011;2697;42.144;24.794;2023-08-17T12:28:27;8.68;;;1.60;;
5349;SDS011;2697;42.144;24.794;2023-08-17T12:31:01;5.72;;;1.77;;
5349;SDS011;2697;42.144;24.794;2023-08-17T12:33:28;2.30;;;1.90;;
5349;SDS011;2697;42.144;24.794;2023-08-17T12:35:54;8.52;;;2.35;;
5349;SDS011;2697;42.144;24.794;2023-08-17T12:38:20;3.80;;;2.33;;
5349;SDS011;2697;42.144;24.794;2023-08-17T12:40:46;3.75;;;1.60;;
5349;SDS011;2697;42.144;24.794;2023-08-17T12:43:12;2.17;;;1.60;;
5349;SDS011;2697;42.144;24.794;2023-08-17T12:45:37;6.18;;;1.92;;
5349;SDS011;2697;42.144;24.794;2023-08-17T12:48:02;6.65;;;2.20;;
5349;SDS011;2697;42.144;24.794;2023-08-17T12:50:28;3.50;;;1.50;;
5349;SDS011;2697;42.144;24.794;2023-08-17T12:52:53;2.03;;;1.70;;
5349;SDS011;2697;42.144;24.794;2023-08-17T12:55:19;2.30;;;2.10;;
5349;SDS011;2697;42.144;24.794;2023-08-17T12:57:44;6.07;;;1.92;;
5349;SDS011;2697;42.144;24.794;2023-08-17T13:00:09;8.02;;;2.40;;
5349;SDS011;2697;42.144;24.794;2023-08-17T13:02:35;9.00;;;1.85;;
5349;SDS011;2697;42.144;24.794;2023-08-17T13:05:00;12.35;;;2.22;;
5349;SDS011;2697;42.144;24.794;2023-08-17T13:07:26;5.43;;;2.13;;
5349;SDS011;2697;42.144;24.794;2023-08-17T13:09:51;17.95;;;2.47;;
5349;SDS011;2697;42.144;24.794;2023-08-17T13:12:17;8.20;;;1.90;;
5349;SDS011;2697;42.144;24.794;2023-08-17T13:14:42;18.58;;;2.50;;
5349;SDS011;2697;42.144;24.794;2023-08-17T13:17:07;5.20;;;2.10;;
5349;SDS011;2697;42.144;24.794;2023-08-17T13:19:33;1.85;;;1.75;;
5349;SDS011;2697;42.144;24.794;2023-08-17T13:21:58;10.95;;;2.08;;
5349;SDS011;2697;42.144;24.794;2023-08-17T13:24:24;4.43;;;2.50;;
5349;SDS011;2697;42.144;24.794;2023-08-17T13:26:49;2.20;;;1.73;;
5349;SDS011;2697;42.144;24.794;2023-08-17T13:29:18;7.10;;;2.15;;
5349;SDS011;2697;42.144;24.794;2023-08-17T13:31:43;6.18;;;1.73;;
5349;SDS011;2697;42.144;24.794;2023-08-17T13:34:11;5.55;;;1.83;;
5349;SDS011;2697;42.144;24.794;2023-08-17T13:36:37;12.80;;;2.00;;
5349;SDS011;2697;42.144;24.794;2023-08-17T13:39:02;5.40;;;2.38;;
5349;SDS011;2697;42.144;24.794;2023-08-17T13:41:28;3.70;;;2.28;;
5349;SDS011;2697;42.144;24.794;2023-08-17T13:43:53;2.63;;;1.77;;
5349;SDS011;2697;42.144;24.794;2023-08-17T13:46:18;2.65;;;1.80;;
5349;SDS011;2697;42.144;24.794;2023-08-17T13:48:44;4.72;;;2.00;;
5349;SDS011;2697;42.144;24.794;2023-08-17T13:51:09;6.10;;;2.38;;
5349;SDS011;2697;42.144;24.794;2023-08-17T13:53:36;7.53;;;2.50;;
5349;SDS011;2697;42.144;24.794;2023-08-17T13:56:01;11.73;;;2.60;;
5349;SDS011;2697;42.144;24.794;2023-08-17T13:58:27;3.75;;;1.98;;
5349;SDS011;2697;42.144;24.794;2023-08-17T14:00:52;3.92;;;2.15;;
5349;SDS011;2697;42.144;24.794;2023-08-17T14:03:18;9.27;;;2.60;;
5349;SDS011;2697;42.144;24.794;2023-08-17T14:05:44;4.85;;;2.13;;
5349;SDS011;2697;42.144;24.794;2023-08-17T14:08:09;14.65;;;3.40;;
5349;SDS011;2697;42.144;24.794;2023-08-17T14:10:35;5.47;;;2.28;;
5349;SDS011;2697;42.144;24.794;2023-08-17T14:13:01;5.53;;;2.58;;
5349;SDS011;2697;42.144;24.794;2023-08-17T14:15:27;7.82;;;2.40;;
5349;SDS011;2697;42.144;24.794;2023-08-17T14:17:52;4.25;;;2.25;;
5349;SDS011;2697;42.144;24.794;2023-08-17T14:20:17;2.20;;;1.80;;
5349;SDS011;2697;42.144;24.794;2023-08-17T14:22:43;6.68;;;1.85;;
5349;SDS011;2697;42.144;24.794;2023-08-17T14:25:08;4.75;;;1.85;;
5349;SDS011;2697;42.144;24.794;2023-08-17T14:27:33;11.10;;;1.90;;
5349;SDS011;2697;42.144;24.794;2023-08-17T14:29:59;12.18;;;2.60;;
5349;SDS011;2697;42.144;24.794;2023-08-17T14:32:26;4.70;;;2.33;;
5349;SDS011;2697;42.144;24.794;2023-08-17T14:34:52;1.88;;;1.77;;
5349;SDS011;2697;42.144;24.794;2023-08-17T14:37:18;6.30;;;2.28;;
5349;SDS011;2697;42.144;24.794;2023-08-17T14:39:44;4.50;;;2.45;;
5349;SDS011;2697;42.144;24.794;2023-08-17T14:42:09;10.00;;;2.65;;
5349;SDS011;2697;42.144;24.794;2023-08-17T14:44:34;12.88;;;2.45;;
5349;SDS011;2697;42.144;24.794;2023-08-17T14:47:00;3.70;;;2.72;;
5349;SDS011;2697;42.144;24.794;2023-08-17T14:49:25;7.18;;;2.50;;
5349;SDS011;2697;42.144;24.794;2023-08-17T14:51:50;3.88;;;2.10;;
5349;SDS011;2697;42.144;24.794;2023-08-17T14:54:16;5.20;;;2.10;;
5349;SDS011;2697;42.144;24.794;2023-08-17T14:56:41;2.67;;;1.90;;
5349;SDS011;2697;42.144;24.794;2023-08-17T14:59:06;6.93;;;3.00;;
5349;SDS011;2697;42.144;24.794;2023-08-17T15:01:32;9.38;;;2.50;;
5349;SDS011;2697;42.144;24.794;2023-08-17T15:03:57;3.53;;;1.98;;